Time;durP1;ratioP1;P1;durP2;ratioP2;P2;SDS_P1;SDS_P2;PMS_P1;PMS_P2;Temp;Humidity;BMP_temperature;BMP_pressure;BME280_temperature;BME280_humidity;BME280_pressure;Samples;Min_cycle;Max_cycle;Signal;HPM_P1;HPM_P2
2022/10/01 00:00:18;;;;;;;20.35;8.73;;;;;;;;;;5065796;28;20222;-69
2022/10/01 00:02:45;;;;;;;10.93;7.68;;;;;;;;;;5067328;28;20224;-69
2022/10/01 00:05:13;;;;;;;11.45;8.60;;;;;;;;;;5066168;28;20654;-69
2022/10/01 00:07:39;;;;;;;8.80;7.63;;;;;;;;;;5065156;28;20631;-69
2022/10/01 00:10:07;;;;;;;10.82;7.43;;;;;;;;;;5067970;28;20257;-69
2022/10/01 00:12:33;;;;;;;13.68;8.80;;;;;;;;;;5067391;27;20209;-68
2022/10/01 00:15:00;;;;;;;10.13;8.65;;;;;;;;;;5066253;27;20646;-69
2022/10/01 00:17:26;;;;;;;16.42;8.32;;;;;;;;;;5065606;27;20221;-68
2022/10/01 00:19:53;;;;;;;13.73;8.05;;;;;;;;;;5066458;28;20209;-69
2022/10/01 00:22:20;;;;;;;17.92;9.20;;;;;;;;;;5065519;27;20209;-69
2022/10/01 00:24:48;;;;;;;11.43;8.15;;;;;;;;;;5067090;27;20353;-68
2022/10/01 00:27:14;;;;;;;20.73;8.50;;;;;;;;;;5064899;27;20232;-68
2022/10/01 00:29:43;;;;;;;14.68;7.82;;;;;;;;;;5066716;28;20262;-68
2022/10/01 00:32:09;;;;;;;11.27;7.70;;;;;;;;;;5066052;27;20286;-69
2022/10/01 00:34:36;;;;;;;9.13;7.80;;;;;;;;;;5068323;28;20201;-68
2022/10/01 00:37:03;;;;;;;10.27;7.20;;;;;;;;;;5065249;28;20205;-68
2022/10/01 00:39:31;;;;;;;14.65;7.55;;;;;;;;;;5062069;27;20783;-68
2022/10/01 00:41:58;;;;;;;9.95;7.95;;;;;;;;;;5063014;28;20244;-68
2022/10/01 00:44:27;;;;;;;14.25;7.60;;;;;;;;;;5062714;28;20369;-67
2022/10/01 00:46:54;;;;;;;14.15;6.80;;;;;;;;;;5063647;28;20290;-68
2022/10/01 00:49:23;;;;;;;9.23;6.80;;;;;;;;;;5062798;27;21123;-69
2022/10/01 00:51:55;;;;;;;12.10;7.13;;;;;;;16.01;nan;95489.56;5060624;27;20542;-68
2022/10/01 00:54:23;;;;;;;13.07;6.47;;;;;;;;;;5062238;28;20209;-68
2022/10/01 00:56:53;;;;;;;13.00;6.75;;;;;;;;;;5065558;27;20246;-68
2022/10/01 00:59:19;;;;;;;22.00;6.57;;;;;;;;;;5064038;28;21257;-69
2022/10/01 01:01:46;;;;;;;8.00;7.28;;;;;;;;;;5067134;27;20209;-68
2022/10/01 01:04:16;;;;;;;8.52;6.65;;;;;;;;;;5066566;27;20306;-68
2022/10/01 01:06:43;;;;;;;7.90;7.18;;;;;;;;;;5063979;28;20327;-68
2022/10/01 01:09:10;;;;;;;8.18;7.28;;;;;;;;;;5061083;27;20223;-68
2022/10/01 01:11:39;;;;;;;7.57;6.68;;;;;;;;;;5064468;28;20258;-68
2022/10/01 01:14:14;;;;;;;10.35;6.90;;;;;;;;;;5065421;28;20282;-67
2022/10/01 01:16:45;;;;;;;10.35;6.65;;;;;;;;;;5066813;28;20749;-68
2022/10/01 01:19:19;;;;;;;8.50;7.22;;;;;;;;;;5065935;27;20811;-67
2022/10/01 01:21:47;;;;;;;6.10;5.60;;;;;;;;;;5065950;28;20692;-68
2022/10/01 01:24:34;;;;;;;7.35;5.93;;;;;;;;;;5064913;28;20235;-68
2022/10/01 01:27:08;;;;;;;6.85;5.50;;;;;;;;;;5064333;28;20209;-68
2022/10/01 01:29:39;;;;;;;6.93;5.70;;;;;;;;;;5060214;27;20201;-67
2022/10/01 01:32:08;;;;;;;7.00;5.60;;;;;;;;;;5063967;28;20201;-68
2022/10/01 01:34:36;;;;;;;8.30;6.55;;;;;;;;;;5064442;28;20201;-69
2022/10/01 01:37:05;;;;;;;9.57;6.28;;;;;;;;;;5063100;28;20201;-69
2022/10/01 01:39:33;;;;;;;12.52;6.65;;;;;;;;;;5061654;27;20293;-68
2022/10/01 01:42:04;;;;;;;7.38;5.60;;;;;;;;;;5062453;28;20925;-68
2022/10/01 01:44:32;;;;;;;7.72;5.60;;;;;;;;;;5063027;28;20228;-68
2022/10/01 01:47:01;;;;;;;9.48;6.75;;;;;;;;;;5063554;28;20204;-69
2022/10/01 01:49:28;;;;;;;8.32;5.32;;;;;;;;;;5062166;27;20747;-68
2022/10/01 01:51:58;;;;;;;6.10;5.45;;;;;;;;;;5064937;27;20208;-68
2022/10/01 01:54:28;;;;;;;6.55;5.90;;;;;;;;;;5065932;28;20646;-68
2022/10/01 01:56:57;;;;;;;5.82;4.78;;;;;;;;;;5064959;27;20213;-69
2022/10/01 01:59:24;;;;;;;5.60;4.75;;;;;;;;;;5064805;27;20204;-68
2022/10/01 02:01:50;;;;;;;12.80;5.03;;;;;;;;;;5060975;28;20828;-69
2022/10/01 02:04:21;;;;;;;5.75;5.25;;;;;;;;;;5063831;28;20297;-68
2022/10/01 02:06:56;;;;;;;5.68;4.88;;;;;;;;;;5065663;28;20297;-67
2022/10/01 02:09:27;;;;;;;6.63;4.95;;;;;;;;;;5063239;27;20204;-69
2022/10/01 02:11:58;;;;;;;5.60;4.65;;;;;;;;;;5064407;28;20220;-68
2022/10/01 02:14:29;;;;;;;7.78;5.60;;;;;;;;;;5066980;28;20269;-70
2022/10/01 02:16:58;;;;;;;6.38;5.32;;;;;;;;;;5064093;28;20219;-69
2022/10/01 02:19:29;;;;;;;7.45;4.93;;;;;;;;;;5062150;27;20212;-70
2022/10/01 02:21:58;;;;;;;5.00;4.65;;;;;;;;;;5065710;28;20864;-67
2022/10/01 02:24:29;;;;;;;8.95;5.22;;;;;;;;;;5064057;28;20225;-68
2022/10/01 02:26:55;;;;;;;8.10;5.60;;;;;;;;;;5064913;27;20589;-68
2022/10/01 02:29:23;;;;;;;8.23;4.75;;;;;;;;;;5063541;27;20197;-67
2022/10/01 02:31:52;;;;;;;8.75;5.68;;;;;;;;;;5065161;28;20631;-67
2022/10/01 02:34:19;;;;;;;5.35;4.85;;;;;;;;;;5064997;28;20686;-70
2022/10/01 02:36:48;;;;;;;5.40;4.90;;;;;;;;;;5063605;28;20222;-68
2022/10/01 02:39:16;;;;;;;10.32;6.07;;;;;;;;;;5065095;28;20501;-68
2022/10/01 02:41:44;;;;;;;7.90;6.00;;;;;;;;;;5064871;27;21333;-68
2022/10/01 02:44:12;;;;;;;5.03;4.55;;;;;;;;;;5064818;28;20701;-68
2022/10/01 02:46:41;;;;;;;8.07;4.93;;;;;;;;;;5064651;28;20221;-68
2022/10/01 02:49:09;;;;;;;5.32;4.82;;;;;;;;;;5062657;28;20297;-68
2022/10/01 02:51:40;;;;;;;6.28;5.72;;;;;;;;;;5065711;28;20541;-68
2022/10/01 02:54:11;;;;;;;6.70;5.00;;;;;;;;;;5063667;28;20278;-68
2022/10/01 02:59:23;;;;;;;5.18;4.57;;;;;;;;;;5063049;28;20226;-68
2022/10/01 03:01:50;;;;;;;5.43;4.97;;;;;;;;;;5062228;28;20701;-67
2022/10/01 03:04:18;;;;;;;6.70;5.20;;;;;;;;;;5063732;28;20275;-68
2022/10/01 03:06:45;;;;;;;8.13;4.45;;;;;;;;;;5063621;28;20390;-68
2022/10/01 03:09:13;;;;;;;8.32;4.85;;;;;;;14.80;nan;95553.06;5062244;28;20197;-68
2022/10/01 03:11:41;;;;;;;10.13;6.15;;;;;;;;;;5063885;28;20707;-67
2022/10/01 03:14:08;;;;;;;12.73;4.93;;;;;;;;;;5063709;28;20202;-68
2022/10/01 03:16:35;;;;;;;5.60;5.10;;;;;;;;;;5064183;28;20197;-68
2022/10/01 03:19:01;;;;;;;5.57;4.93;;;;;;;;;;5064654;28;20207;-68
2022/10/01 03:21:28;;;;;;;6.68;5.47;;;;;;;;;;5064778;28;20576;-69
2022/10/01 03:23:55;;;;;;;10.10;5.20;;;;;;;14.91;nan;95571.34;5065879;28;20208;-68
2022/10/01 03:26:23;;;;;;;10.05;5.40;;;;;;;;;;5069124;28;20224;-67
2022/10/01 03:28:49;;;;;;;9.05;5.53;;;;;;;;;;5065693;28;20744;-68
2022/10/01 03:31:15;;;;;;;7.10;5.35;;;;;;;;;;5066462;28;20293;-68
2022/10/01 03:33:42;;;;;;;11.00;5.60;;;;;;;;;;5065811;28;20282;-68
2022/10/01 03:36:08;;;;;;;6.43;5.53;;;;;;;;;;5066074;28;20274;-68
2022/10/01 03:38:35;;;;;;;5.97;5.47;;;;;;;;;;5064026;28;20285;-68
2022/10/01 03:41:01;;;;;;;11.45;6.13;;;;;;;;;;5065718;28;20253;-68
2022/10/01 03:43:29;;;;;;;10.95;5.75;;;;;;;;;;5065517;28;20197;-69
2022/10/01 03:45:56;;;;;;;9.55;5.30;;;;;;;;;;5065438;28;20375;-68
2022/10/01 03:48:23;;;;;;;5.68;5.18;;;;;;;;;;5060235;28;20242;-68
2022/10/01 03:50:53;;;;;;;9.13;6.30;;;;;;;;;;5064274;28;20710;-68
2022/10/01 03:53:20;;;;;;;9.02;6.00;;;;;;;;;;5065428;28;20193;-69
2022/10/01 03:55:46;;;;;;;6.07;5.25;;;;;;;;;;5065559;28;21075;-68
2022/10/01 03:58:13;;;;;;;8.48;5.32;;;;;;;;;;5063798;28;21105;-69
2022/10/01 04:00:41;;;;;;;16.42;6.57;;;;;;;;;;5066233;28;20256;-68
2022/10/01 04:03:08;;;;;;;10.52;5.00;;;;;;;;;;5065851;28;20215;-69
2022/10/01 04:05:34;;;;;;;13.95;5.35;;;;;;;;;;5025132;28;1198290;-69
2022/10/01 04:08:01;;;;;;;10.40;5.00;;;;;;;;;;5066629;28;20282;-68
2022/10/01 04:10:27;;;;;;;5.43;4.93;;;;;;;;;;5065201;28;20249;-68
2022/10/01 04:12:54;;;;;;;6.07;5.22;;;;;;;;;;5065448;28;20250;-67
2022/10/01 04:15:21;;;;;;;7.07;4.93;;;;;;;;;;5067617;28;20257;-68
2022/10/01 04:17:48;;;;;;;5.70;4.90;;;;;;;;;;5066797;27;20393;-68
2022/10/01 04:20:15;;;;;;;6.70;5.93;;;;;;;;;;5065918;27;20721;-68
2022/10/01 04:22:42;;;;;;;14.15;5.75;;;;;;;;;;5067677;28;20197;-68
2022/10/01 04:25:09;;;;;;;5.57;5.07;;;;;;;;;;5065116;28;20222;-68
2022/10/01 04:27:36;;;;;;;5.43;5.03;;;;;;;;;;5063934;28;20327;-68
2022/10/01 04:30:02;;;;;;;10.68;5.60;;;;;;;;;;5064840;28;20690;-68
2022/10/01 04:32:29;;;;;;;6.28;5.72;;;;;;;;;;5066087;28;20205;-67
2022/10/01 04:34:57;;;;;;;6.45;4.78;;;;;;;;;;5067512;28;20218;-68
2022/10/01 04:37:26;;;;;;;10.15;6.22;;;;;;;;;;5069913;28;20200;-69
2022/10/01 04:39:53;;;;;;;14.05;7.05;;;;;;;;;;5067100;27;20201;-67
2022/10/01 04:42:19;;;;;;;9.30;5.68;;;;;;;;;;5065805;28;20223;-68
2022/10/01 04:44:46;;;;;;;11.88;6.80;;;;;;;;;;5066223;27;20200;-69
2022/10/01 04:47:12;;;;;;;13.57;6.78;;;;;;;;;;5065290;28;20237;-68
2022/10/01 04:49:39;;;;;;;10.75;6.43;;;;;;;;;;5065899;27;20510;-68
2022/10/01 04:52:06;;;;;;;10.00;5.68;;;;;;;;;;5064857;28;20261;-68
2022/10/01 04:54:33;;;;;;;8.70;5.72;;;;;;;;;;5066488;27;22336;-68
2022/10/01 04:56:59;;;;;;;6.88;6.18;;;;;;;;;;5066325;27;20240;-69
2022/10/01 04:59:26;;;;;;;10.05;6.15;;;;;;;;;;5064631;28;20594;-68
2022/10/01 05:01:52;;;;;;;8.77;5.53;;;;;;;;;;5063738;28;20205;-69
2022/10/01 05:04:19;;;;;;;7.60;5.85;;;;;;;;;;5065893;27;20613;-69
2022/10/01 05:06:45;;;;;;;7.55;6.10;;;;;;;;;;5065621;27;20245;-69
2022/10/01 05:09:13;;;;;;;7.25;5.53;;;;;;;;;;5065152;28;20285;-68
2022/10/01 05:11:40;;;;;;;6.88;6.25;;;;;;;;;;5065986;28;20288;-68
2022/10/01 05:14:06;;;;;;;13.73;7.13;;;;;;;;;;5066228;27;20213;-68
2022/10/01 05:16:33;;;;;;;6.50;6.05;;;;;;;;;;5067235;27;20764;-68
2022/10/01 05:18:59;;;;;;;6.70;5.90;;;;;;;;;;5063920;28;20204;-70
2022/10/01 05:21:26;;;;;;;11.60;7.88;;;;;;;;;;5065357;27;20686;-68
2022/10/01 05:23:53;;;;;;;11.30;7.78;;;;;;;;;;5064813;27;20275;-68
2022/10/01 05:26:21;;;;;;;18.33;12.00;;;;;;;;;;5066327;28;20220;-68
2022/10/01 05:28:49;;;;;;;18.70;13.40;;;;;;;;;;5063398;27;20205;-68
2022/10/01 05:31:17;;;;;;;11.77;9.25;;;;;;;;;;5063541;27;20208;-68
2022/10/01 05:33:43;;;;;;;9.40;7.28;;;;;;;;;;5065413;28;20506;-67
2022/10/01 05:36:10;;;;;;;12.10;6.88;;;;;;;;;;5062659;28;21606;-70
2022/10/01 05:38:36;;;;;;;12.95;6.93;;;;;;;;;;5061839;28;20643;-68
2022/10/01 05:41:03;;;;;;;12.00;7.10;;;;;;;;;;5065058;28;20258;-66
2022/10/01 05:43:31;;;;;;;15.73;11.10;;;;;;;;;;5064208;28;20209;-70
2022/10/01 05:46:00;;;;;;;19.55;6.55;;;;;;;;;;5059750;28;20231;-68
2022/10/01 05:48:26;;;;;;;10.45;7.07;;;;;;;;;;5065526;28;20874;-70
2022/10/01 05:50:53;;;;;;;9.98;6.72;;;;;;;;;;5063566;28;21051;-68
2022/10/01 05:53:21;;;;;;;11.48;6.90;;;;;;;;;;5066769;28;20236;-69
2022/10/01 05:55:47;;;;;;;13.00;7.63;;;;;;;;;;5066413;28;20285;-69
2022/10/01 05:58:14;;;;;;;12.02;8.73;;;;;;;;;;5065979;28;20196;-69
2022/10/01 06:00:42;;;;;;;15.23;7.63;;;;;;;;;;5066489;28;20775;-68
2022/10/01 06:03:11;;;;;;;12.02;7.70;;;;;;;;;;5064690;28;20205;-68
2022/10/01 06:05:37;;;;;;;65.00;36.85;;;;;;;;;;5065785;28;20321;-68
2022/10/01 06:08:04;;;;;;;17.95;8.38;;;;;;;;;;5065258;28;22101;-69
2022/10/01 06:10:30;;;;;;;16.63;9.18;;;;;;;;;;5065682;27;20833;-68
2022/10/01 06:13:00;;;;;;;12.30;8.65;;;;;;;18.55;nan;95627.94;5064131;28;20270;-68
2022/10/01 06:15:27;;;;;;;12.98;6.65;;;;;;;;;;5061873;27;20716;-69
2022/10/01 06:17:55;;;;;;;16.13;8.02;;;;;;;;;;5063970;27;20266;-68
2022/10/01 06:20:22;;;;;;;11.18;8.82;;;;;;;21.31;nan;95618.72;5063152;28;21007;-69
2022/10/01 06:22:54;;;;;;;11.65;6.93;;;;;;;;;;5061453;27;20201;-68
2022/10/01 06:25:21;;;;;;;10.43;7.05;;;;;;;;;;5064702;28;20200;-68
2022/10/01 06:27:52;;;;;;;14.20;7.43;;;;;;;;;;5065797;28;21936;-68
2022/10/01 06:30:18;;;;;;;16.70;11.23;;;;;;;;;;5066459;28;20216;-69
2022/10/01 06:32:45;;;;;;;14.55;8.15;;;;;;;;;;5052752;28;20216;-68
2022/10/01 06:35:13;;;;;;;8.23;7.35;;;;;;;;;;5069254;28;20231;-69
2022/10/01 06:37:39;;;;;;;10.77;7.15;;;;;;;;;;5051558;28;20200;-69
2022/10/01 06:40:07;;;;;;;9.05;7.43;;;;;;;;;;5048504;28;20302;-69
2022/10/01 06:42:33;;;;;;;14.90;7.07;;;;;;;;;;5056760;28;20205;-69
2022/10/01 06:45:00;;;;;;;11.00;6.95;;;;;;;;;;5058686;28;20204;-68
2022/10/01 06:47:26;;;;;;;14.07;7.13;;;;;;;;;;5062354;28;20244;-68
2022/10/01 06:49:52;;;;;;;8.95;7.07;;;;;;;;;;5064386;28;20294;-67
2022/10/01 06:55:05;;;;;;;14.57;8.35;;;;;;;;;;5062080;28;20212;-68
2022/10/01 06:57:32;;;;;;;10.02;8.45;;;;;;;;;;5061562;28;20602;-67
2022/10/01 06:59:59;;;;;;;17.83;8.88;;;;;;;;;;5058476;28;20205;-69
2022/10/01 07:02:28;;;;;;;86.70;46.40;;;;;;;;;;5058447;28;20204;-68
2022/10/01 07:04:57;;;;;;;26.45;17.40;;;;;;;;;;5056357;28;20696;-68
2022/10/01 07:07:28;;;;;;;13.60;10.07;;;;;;;;;;5063848;28;20654;-68
2022/10/01 07:09:54;;;;;;;16.10;7.97;;;;;;;;;;5061950;28;20212;-68
2022/10/01 07:12:21;;;;;;;8.18;7.38;;;;;;;;;;5067090;28;20204;-68
2022/10/01 07:14:48;;;;;;;17.50;7.20;;;;;;;;;;5058298;28;20198;-69
2022/10/01 07:17:14;;;;;;;18.50;6.75;;;;;;;;;;5060275;28;20201;-69
2022/10/01 07:19:41;;;;;;;9.05;6.90;;;;;;;;;;5060670;28;20270;-69
2022/10/01 07:22:07;;;;;;;8.02;5.85;;;;;;;;;;5054603;28;20281;-69
2022/10/01 07:24:35;;;;;;;8.20;5.22;;;;;;;;;;5062333;28;20205;-69
2022/10/01 07:27:02;;;;;;;10.85;5.80;;;;;;;;;;5062264;28;20771;-68
2022/10/01 07:29:29;;;;;;;11.27;6.03;;;;;;;;;;5065026;28;20638;-69
2022/10/01 07:31:56;;;;;;;16.05;5.82;;;;;;;;;;5060719;28;20443;-70
2022/10/01 07:34:24;;;;;;;12.98;5.93;;;;;;;;;;5056531;28;20209;-69
2022/10/01 07:36:50;;;;;;;9.35;5.97;;;;;;;;;;5063960;28;20202;-69
2022/10/01 07:39:17;;;;;;;9.80;7.15;;;;;;;;;;5062389;28;20298;-69
2022/10/01 07:41:44;;;;;;;15.93;6.65;;;;;;;;;;5062206;28;20236;-69
2022/10/01 07:44:11;;;;;;;18.05;7.18;;;;;;;;;;5061008;28;20967;-70
2022/10/01 07:46:38;;;;;;;10.68;6.57;;;;;;;;;;5063000;28;20226;-70
2022/10/01 07:49:04;;;;;;;11.95;6.50;;;;;;;;;;5061754;28;20391;-70
2022/10/01 07:51:31;;;;;;;11.55;5.60;;;;;;;;;;5062832;28;20499;-69
2022/10/01 07:53:58;;;;;;;19.20;11.77;;;;;;;;;;5061937;28;20208;-68
2022/10/01 07:56:25;;;;;;;14.60;6.40;;;;;;;;;;5063378;28;20201;-69
2022/10/01 07:58:55;;;;;;;10.50;6.85;;;;;;;;;;5061346;28;20224;-68
2022/10/01 08:01:22;;;;;;;14.50;7.15;;;;;;;;;;5066700;28;20240;-68
2022/10/01 08:03:49;;;;;;;12.27;6.90;;;;;;;;;;5065927;28;20209;-68
2022/10/01 08:06:16;;;;;;;14.27;7.72;;;;;;;;;;5066473;28;20313;-62
2022/10/01 08:08:43;;;;;;;8.75;7.93;;;;;;;;;;5063727;28;20205;-61
2022/10/01 08:11:12;;;;;;;11.02;6.95;;;;;;;;;;5066967;28;20212;-63
2022/10/01 08:13:38;;;;;;;8.00;6.50;;;;;;;;;;5063060;28;22034;-64
2022/10/01 08:16:08;;;;;;;10.27;6.97;;;;;;;;;;5063146;28;20247;-62
2022/10/01 08:18:35;;;;;;;10.63;7.47;;;;;;;;;;5058924;28;22579;-64
2022/10/01 08:21:02;;;;;;;12.93;7.93;;;;;;;;;;5063378;28;20258;-66
2022/10/01 08:23:30;;;;;;;10.55;7.63;;;;;;;;;;5064687;28;20710;-68
2022/10/01 08:25:59;;;;;;;14.30;9.73;;;;;;;;;;5066516;28;20205;-64
2022/10/01 08:28:25;;;;;;;12.80;7.97;;;;;;;;;;5064510;28;20224;-63
2022/10/01 08:30:52;;;;;;;11.07;7.93;;;;;;;;;;5065894;28;20302;-63
2022/10/01 08:33:20;;;;;;;16.15;7.85;;;;;;;;;;5066556;28;20209;-64
2022/10/01 08:35:46;;;;;;;22.70;15.00;;;;;;;;;;5066518;28;20209;-62
2022/10/01 08:38:13;;;;;;;13.05;9.57;;;;;;;;;;5064661;28;20699;-64
2022/10/01 08:40:42;;;;;;;11.90;7.95;;;;;;;;;;5064647;28;20201;-66
2022/10/01 08:43:11;;;;;;;9.60;8.70;;;;;;;;;;5065116;28;20763;-64
2022/10/01 08:45:40;;;;;;;9.15;7.85;;;;;;;;;;5066207;28;20225;-63
2022/10/01 08:48:15;;;;;;;12.10;8.85;;;;;;;;;;5063667;28;20285;-64
2022/10/01 08:50:46;;;;;;;11.50;8.38;;;;;;;;;;5064948;28;20205;-62
2022/10/01 08:53:16;;;;;;;13.52;8.30;;;;;;;;;;5065888;28;20215;-64
2022/10/01 08:55:44;;;;;;;13.25;9.27;;;;;;;;;;5065282;28;20220;-62
2022/10/01 08:58:12;;;;;;;13.25;8.57;;;;;;;;;;5063768;27;20876;-61
2022/10/01 09:00:40;;;;;;;10.95;7.75;;;;;;;;;;5062158;28;20273;-64
2022/10/01 09:03:10;;;;;;;16.30;9.02;;;;;;;;;;5064425;28;20220;-63
2022/10/01 09:05:45;;;;;;;21.85;8.52;;;;;;;;;;5063669;28;20237;-63
2022/10/01 09:08:19;;;;;;;11.32;8.05;;;;;;;;;;5057302;27;20235;-62
2022/10/01 09:10:47;;;;;;;14.82;8.85;;;;;;;;;;5063491;28;21198;-64
2022/10/01 09:13:28;;;;;;;18.85;9.63;;;;;;;;;;5062723;28;20207;-67
2022/10/01 09:15:57;;;;;;;21.38;16.90;;;;;;;;;;5041828;28;20221;-64
2022/10/01 09:18:27;;;;;;;17.65;10.02;;;;;;;;;;5058816;28;20205;-62
2022/10/01 09:20:55;;;;;;;10.90;8.95;;;;;;;;;;5062048;28;20254;-62
2022/10/01 09:23:26;;;;;;;18.55;8.05;;;;;;;;;;5054058;28;20274;-64
2022/10/01 09:25:53;;;;;;;9.55;7.68;;;;;;;;;;5064345;27;20223;-65
2022/10/01 09:28:20;;;;;;;20.02;9.63;;;;;;;;;;5063197;27;20251;-62
2022/10/01 09:30:50;;;;;;;18.42;9.65;;;;;;;;;;5063421;27;20201;-64
2022/10/01 09:33:19;;;;;;;14.85;9.35;;;;;;;19.42;nan;95677.03;5065112;28;20297;-62
2022/10/01 09:35:48;;;;;;;17.60;9.23;;;;;;;;;;5064644;27;20263;-63
2022/10/01 09:38:17;;;;;;;14.93;10.18;;;;;;;;;;5059299;27;21054;-61
2022/10/01 09:40:49;;;;;;;15.55;10.80;;;;;;;;;;5063507;27;20205;-63
2022/10/01 09:43:18;;;;;;;16.98;13.20;;;;;;;;;;5063934;27;20791;-63
2022/10/01 09:45:45;;;;;;;16.13;8.52;;;;;;;;;;5066034;27;20209;-63
2022/10/01 09:48:17;;;;;;;13.25;10.70;;;;;;;;;;5065350;28;20277;-70
2022/10/01 09:50:57;;;;;;;15.20;8.90;;;;;;;;;;5065639;27;20255;-67
2022/10/01 09:53:26;;;;;;;25.45;11.52;;;;;;;;;;5064305;27;20201;-69
2022/10/01 09:55:57;;;;;;;20.45;8.77;;;;;;;;;;5064560;28;20744;-68
2022/10/01 09:58:24;;;;;;;17.20;9.18;;;;;;;;;;5065282;27;20740;-69
2022/10/01 10:00:52;;;;;;;14.68;8.45;;;;;;;;;;5063420;28;20209;-69
2022/10/01 10:03:22;;;;;;;13.65;9.82;;;;;;;;;;5061661;27;20212;-70
2022/10/01 10:05:49;;;;;;;11.63;7.82;;;;;;;;;;5063896;28;20674;-68
2022/10/01 10:08:20;;;;;;;9.98;8.25;;;;;;;;;;5061043;28;20331;-68
2022/10/01 10:10:50;;;;;;;12.00;7.95;;;;;;;;;;5060819;27;20575;-68
2022/10/01 10:13:23;;;;;;;11.30;7.53;;;;;;;;;;5064948;28;20732;-69
2022/10/01 10:15:50;;;;;;;13.38;8.43;;;;;;;;;;5059992;28;20212;-67
2022/10/01 10:18:17;;;;;;;14.20;7.28;;;;;;;;;;5055521;28;20567;-69
2022/10/01 10:20:44;;;;;;;9.25;8.32;;;;;;;;;;5059190;28;20208;-66
2022/10/01 10:23:14;;;;;;;14.07;9.02;;;;;;;;;;5062061;27;20589;-68
2022/10/01 10:25:40;;;;;;;9.00;7.10;;;;;;;;;;5064228;27;20201;-68
2022/10/01 10:28:18;;;;;;;13.25;8.82;;;;;;;;;;5063430;28;20281;-69
2022/10/01 10:30:46;;;;;;;12.15;9.32;;;;;;;;;;5057190;27;20206;-68
2022/10/01 10:33:13;;;;;;;10.02;7.88;;;;;;;;;;5061180;28;20631;-69
2022/10/01 10:35:41;;;;;;;14.27;10.00;;;;;;;;;;5059478;28;20292;-68
2022/10/01 10:38:16;;;;;;;12.43;9.70;;;;;;;;;;5063620;27;20642;-70
2022/10/01 10:40:44;;;;;;;11.40;9.88;;;;;;;;;;5062167;28;20361;-69
2022/10/01 10:43:18;;;;;;;15.93;12.38;;;;;;;;;;5062900;28;20208;-69
2022/10/01 10:45:46;;;;;;;17.63;10.65;;;;;;;;;;5064276;28;20201;-67
2022/10/01 10:48:15;;;;;;;19.55;10.80;;;;;;;;;;5061944;28;20744;-69
2022/10/01 10:50:43;;;;;;;14.68;10.25;;;;;;;;;;5060781;28;20220;-70
2022/10/01 10:53:20;;;;;;;11.27;10.27;;;;;;;;;;5067636;28;20300;-69
2022/10/01 10:55:59;;;;;;;14.60;10.48;;;;;;;;;;5064527;28;20209;-69
2022/10/01 10:58:26;;;;;;;17.20;10.82;;;;;;;;;;5061929;28;20695;-71
2022/10/01 11:00:56;;;;;;;12.90;10.90;;;;;;;;;;5064484;28;20200;-70
2022/10/01 11:03:24;;;;;;;13.90;10.13;;;;;;;;;;5062156;28;20678;-69
2022/10/01 11:05:55;;;;;;;14.25;9.93;;;;;;;;;;5063324;28;20232;-68
2022/10/01 11:08:23;;;;;;;13.73;8.52;;;;;;;;;;5059955;28;20331;-68
2022/10/01 11:10:53;;;;;;;11.02;8.98;;;;;;;;;;5060301;28;20208;-69
2022/10/01 11:13:36;;;;;;;11.80;8.35;;;;;;;;;;5062534;28;20270;-70
2022/10/01 11:16:11;;;;;;;15.07;10.75;;;;;;;;;;5061691;28;20265;-68
2022/10/01 11:18:54;;;;;;;13.73;10.68;;;;;;;;;;5060865;28;20201;-69
2022/10/01 11:21:42;;;;;;;14.95;10.20;;;;;;;;;;5063514;28;21033;-68
2022/10/01 11:24:31;;;;;;;14.70;10.43;;;;;;;;;;5054364;28;20201;-69
2022/10/01 11:27:00;;;;;;;19.88;10.57;;;;;;;;;;5058398;28;20232;-70
2022/10/01 11:29:33;;;;;;;11.18;10.07;;;;;;;;;;5054320;28;20213;-68
2022/10/01 11:32:05;;;;;;;14.15;9.80;;;;;;;;;;5060181;28;20887;-68
2022/10/01 11:34:49;;;;;;;14.25;9.85;;;;;;;;;;5065498;28;20686;-71
2022/10/01 11:37:27;;;;;;;11.82;9.75;;;;;;;;;;5067097;27;20201;-71
2022/10/01 11:39:55;;;;;;;11.80;10.20;;;;;;;;;;5065615;28;20701;-71
2022/10/01 11:42:26;;;;;;;15.70;10.98;;;;;;;;;;5065818;28;20299;-70
2022/10/01 11:44:58;;;;;;;15.30;10.32;;;;;;;;;;5067905;28;20219;-69
2022/10/01 11:47:30;;;;;;;15.15;10.13;;;;;;;;;;5063331;27;20236;-70
2022/10/01 11:49:58;;;;;;;16.35;11.38;;;;;;;;;;5061087;27;20205;-69
2022/10/01 11:52:33;;;;;;;12.48;10.40;;;;;;;;;;5066645;28;20206;-69
2022/10/01 11:58:49;;;;;;;10.43;9.23;;;;;;;;;;5066370;27;20200;-73
2022/10/01 12:00:38;;;;;;;23.17;11.35;;;;;;;;;;5065139;28;20236;-68
2022/10/01 12:03:10;;;;;;;12.48;10.65;;;;;;;;;;5068347;27;20286;-70
2022/10/01 12:05:37;;;;;;;14.52;9.95;;;;;;;;;;5067304;28;20240;-68
2022/10/01 12:08:08;;;;;;;14.25;10.43;;;;;;;;;;5067819;28;20790;-69
2022/10/01 12:10:38;;;;;;;15.10;11.10;;;;;;;;;;5068585;27;20709;-66
2022/10/01 12:13:10;;;;;;;12.88;11.27;;;;;;;;;;5066734;27;20621;-70
2022/10/01 12:15:40;;;;;;;18.52;10.95;;;;;;;;;;5065705;28;20638;-66
2022/10/01 12:18:13;;;;;;;11.80;9.57;;;;;;;;;;5065550;27;20954;-67
2022/10/01 12:20:41;;;;;;;13.13;9.25;;;;;;;;;;5066823;27;20286;-67
2022/10/01 12:23:12;;;;;;;10.57;9.32;;;;;;;;;;5065995;28;20210;-66
2022/10/01 12:25:45;;;;;;;10.73;7.93;;;;;;;;;;5065000;27;20288;-68
2022/10/01 12:28:13;;;;;;;10.18;7.43;;;;;;;;;;5064419;27;20683;-66
2022/10/01 12:30:43;;;;;;;10.77;7.00;;;;;;;;;;5065181;28;20518;-69
2022/10/01 12:33:20;;;;;;;10.65;6.47;;;;;;;;;;5063933;28;20209;-67
2022/10/01 12:35:57;;;;;;;59.35;35.78;;;;;;;;;;5064635;28;20205;-63
2022/10/01 12:38:28;;;;;;;27.48;16.00;;;;;;;;;;5064370;28;20200;-63
2022/10/01 12:40:58;;;;;;;24.05;12.82;;;;;;;;;;5064763;28;20217;-66
2022/10/01 12:43:51;;;;;;;10.30;6.32;;;;;;;;;;5064563;27;20213;-67
2022/10/01 12:46:23;;;;;;;11.10;5.85;;;;;;;;;;5067300;27;20770;-66
2022/10/01 12:48:53;;;;;;;6.35;5.63;;;;;;;;;;5065850;27;20235;-68
2022/10/01 12:51:28;;;;;;;6.80;5.38;;;;;;;;;;5065936;27;20205;-67
2022/10/01 12:53:59;;;;;;;11.45;5.70;;;;;;;;;;5065555;27;20209;-69
2022/10/01 12:56:31;;;;;;;12.60;6.85;;;;;;;;;;5064949;28;20212;-67
2022/10/01 12:59:08;;;;;;;13.65;6.28;;;;;;;;;;5066591;27;20699;-68
2022/10/01 13:01:39;;;;;;;6.90;6.22;;;;;;;;;;5065256;27;20213;-68
2022/10/01 13:04:23;;;;;;;6.53;5.13;;;;;;;;;;5067090;27;20777;-68
2022/10/01 13:06:59;;;;;;;6.57;5.18;;;;;;;;;;5068969;27;20691;-67
2022/10/01 13:09:31;;;;;;;8.55;5.45;;;;;;;;;;5069778;27;20282;-65
2022/10/01 13:12:12;;;;;;;7.53;5.35;;;;;;;;;;5071026;27;20254;-68
2022/10/01 13:14:41;;;;;;;7.75;4.72;;;;;;;;;;5070999;27;20200;-68
2022/10/01 13:17:11;;;;;;;7.50;5.43;;;;;;;;;;5067733;28;22074;-67
2022/10/01 13:19:43;;;;;;;12.68;5.82;;;;;;;;;;5066473;27;20578;-65
2022/10/01 13:22:15;;;;;;;9.98;5.78;;;;;;;;;;5068683;27;20360;-67
2022/10/01 13:24:44;;;;;;;9.57;5.93;;;;;;;;;;5071272;28;20208;-69
2022/10/01 13:27:13;;;;;;;6.10;5.10;;;;;;;;;;5068759;27;20201;-68
2022/10/01 13:29:46;;;;;;;8.07;4.90;;;;;;;;;;5066660;27;20803;-66
2022/10/01 13:32:32;;;;;;;8.30;5.55;;;;;;;;;;5068313;27;20225;-68
2022/10/01 13:34:59;;;;;;;8.07;6.63;;;;;;;;;;5067237;27;20682;-66
2022/10/01 13:37:34;;;;;;;10.57;6.63;;;;;;;;;;5067530;28;20703;-70
2022/10/01 13:40:01;;;;;;;12.85;5.93;;;;;;;;;;5067818;27;20204;-67
2022/10/01 13:42:29;;;;;;;6.38;5.60;;;;;;;;;;5068461;27;20919;-68
2022/10/01 13:44:57;;;;;;;64.90;35.83;;;;;;;;;;5067914;27;20266;-67
2022/10/01 13:47:25;;;;;;;37.67;23.25;;;;;;;;;;5068452;27;20209;-66
2022/10/01 13:49:55;;;;;;;26.50;18.92;;;;;;;;;;5067129;27;20236;-68
2022/10/01 13:52:22;;;;;;;10.00;9.00;;;;;;;;;;5070538;27;20213;-66
2022/10/01 13:54:51;;;;;;;8.98;7.75;;;;;;;;;;5069443;28;20258;-65
2022/10/01 13:57:31;;;;;;;15.70;7.53;;;;;;;;;;5070319;27;20209;-67
2022/10/01 13:59:58;;;;;;;12.43;8.60;;;;;;;;;;5060504;27;20204;-66
2022/10/01 14:02:29;;;;;;;13.02;7.10;;;;;;;;;;5068205;27;20228;-68
2022/10/01 14:04:56;;;;;;;6.03;5.13;;;;;;;;;;5056287;28;20205;-67
2022/10/01 14:07:25;;;;;;;6.10;5.53;;;;;;;;;;5059875;27;20236;-70
2022/10/01 14:09:54;;;;;;;8.23;5.40;;;;;;;;;;5058652;27;20229;-68
2022/10/01 14:18:00;;;;;;;13.88;10.10;;;;;;;;;;5061624;27;20248;-68
2022/10/01 14:20:30;;;;;;;15.88;8.55;;;;;;;;;;5053518;27;20747;-68
2022/10/01 14:23:03;;;;;;;14.38;7.65;;;;;;;;;;5061167;28;20255;-68
2022/10/01 14:25:35;;;;;;;14.35;6.55;;;;;;;;;;5065855;27;20219;-70
2022/10/01 14:28:15;;;;;;;12.35;6.40;;;;;;;;;;5065308;28;20290;-70
2022/10/01 14:30:46;;;;;;;10.25;6.30;;;;;;;;;;5066118;27;20208;-69
2022/10/01 14:33:18;;;;;;;6.40;5.90;;;;;;;;;;5065657;28;21325;-68
2022/10/01 14:35:49;;;;;;;10.50;6.03;;;;;;;;;;5065454;28;20285;-68
2022/10/01 14:38:19;;;;;;;8.45;7.00;;;;;;;;;;5067548;27;20706;-68
2022/10/01 14:40:48;;;;;;;9.88;7.60;;;;;;;;;;5064081;28;20213;-70
2022/10/01 14:43:16;;;;;;;11.82;6.53;;;;;;;;;;5063903;28;21116;-68
2022/10/01 14:45:50;;;;;;;8.35;6.70;;;;;;;;;;5065754;28;20212;-68
2022/10/01 14:48:16;;;;;;;8.20;6.50;;;;;;;;;;5065685;28;20216;-68
2022/10/01 14:50:46;;;;;;;7.60;6.60;;;;;;;;;;5063825;28;20655;-67
2022/10/01 14:53:16;;;;;;;8.93;6.40;;;;;;;;;;5065522;28;20201;-69